Time;durP1;ratioP1;P1;durP2;ratioP2;P2;SDS_P1;SDS_P2;PMS_P1;PMS_P2;Temp;Humidity;BMP_temperature;BMP_pressure;BME280_temperature;BME280_humidity;BME280_pressure;Samples;Min_cycle;Max_cycle;Signal;HPM_P1;HPM_P2
2023/05/11 00:01:24;;;;;;;20.73;14.88;;;;;;;;;;5080609;28;20232;-65
2023/05/11 00:03:50;;;;;;;23.65;15.98;;;;;;;;;;5081197;28;20213;-66
2023/05/11 00:06:15;;;;;;;23.92;15.93;;;;;;;;;;5070065;28;20574;-65
2023/05/11 00:08:40;;;;;;;22.65;15.32;;;;;;;;;;5061508;28;20215;-66
2023/05/11 00:11:07;;;;;;;20.13;15.23;;;;;;;;;;5057327;28;20202;-66
2023/05/11 00:13:32;;;;;;;23.40;16.02;;;;;;;;;;5052828;28;20222;-66
2023/05/11 00:15:57;;;;;;;22.67;15.90;;;;;;;;;;5053356;28;20709;-66
2023/05/11 00:18:23;;;;;;;24.90;16.73;;;;;;;;;;5056114;28;20210;-65
2023/05/11 00:20:48;;;;;;;27.80;16.30;;;;;;;;;;5060240;28;20305;-66
2023/05/11 00:23:13;;;;;;;26.48;16.98;;;;;;;;;;5080099;28;20626;-65
2023/05/11 00:25:39;;;;;;;25.50;16.42;;;;;;;;;;5081157;28;20222;-65
2023/05/11 00:28:04;;;;;;;24.27;16.48;;;;;;;;;;5079765;28;20823;-65
2023/05/11 00:30:29;;;;;;;22.48;16.30;;;;;;;;;;5080652;28;20206;-66
2023/05/11 00:32:55;;;;;;;23.95;16.17;;;;;;;;;;5079845;28;20221;-65
2023/05/11 00:35:20;;;;;;;23.83;16.67;;;;;;;;;;5072695;28;20209;-66
2023/05/11 00:37:45;;;;;;;24.45;16.83;;;;;;;;;;5072616;28;20742;-65
2023/05/11 00:40:11;;;;;;;25.52;17.85;;;;;;;;;;5053450;28;20222;-65
2023/05/11 00:42:36;;;;;;;24.98;18.02;;;;;;;;;;5060312;28;20210;-65
2023/05/11 00:45:01;;;;;;;27.98;17.98;;;;;;;;;;5060271;28;20321;-63
2023/05/11 00:47:27;;;;;;;22.92;18.10;;;;;;;;;;5060842;28;20214;-65
2023/05/11 00:49:52;;;;;;;25.15;17.42;;;;;;;;;;5059928;28;20530;-65
2023/05/11 00:52:18;;;;;;;25.13;17.15;;;;;;;;;;5075073;28;20704;-64
2023/05/11 00:54:43;;;;;;;28.90;18.75;;;;;;;;;;5059957;28;20762;-65
2023/05/11 00:57:08;;;;;;;24.00;17.15;;;;;;;;;;5069896;28;20219;-64
2023/05/11 00:59:34;;;;;;;25.75;17.27;;;;;;;;;;5052859;28;20202;-65
2023/05/11 01:01:59;;;;;;;30.85;18.58;;;;;;;;;;5066844;28;20611;-65
2023/05/11 01:04:25;;;;;;;27.85;17.35;;;;;;;;;;5058519;28;20218;-65
2023/05/11 01:06:51;;;;;;;24.08;17.27;;;;;;;;;;5060727;28;20218;-65
2023/05/11 01:09:28;;;;;;;26.17;18.00;;;;;;;;;;5059064;28;20252;-65
2023/05/11 01:12:20;;;;;;;26.95;17.35;;;;;;;;;;5061578;28;20206;-65
2023/05/11 01:14:57;;;;;;;22.58;16.23;;;;;;;;;;5060151;28;20222;-65
2023/05/11 01:17:26;;;;;;;24.60;17.73;;;;;;;;;;5059860;28;20396;-65
2023/05/11 01:19:55;;;;;;;27.00;18.48;;;;;;;;;;5054526;28;20431;-65
2023/05/11 01:22:32;;;;;;;28.10;18.52;;;;;;;;;;5067386;28;20221;-65
2023/05/11 01:25:04;;;;;;;28.67;18.63;;;;;;;;;;5052245;28;20202;-65
2023/05/11 01:27:38;;;;;;;26.70;18.33;;;;;;;;;;5074655;28;20217;-65
2023/05/11 01:30:21;;;;;;;24.20;17.35;;;;;;;;;;5074338;28;20210;-65
2023/05/11 01:32:47;;;;;;;30.50;19.55;;;;;;;;;;5075463;28;20298;-65
2023/05/11 01:35:19;;;;;;;26.55;18.10;;;;;;;;;;5060180;28;20309;-65
2023/05/11 01:37:46;;;;;;;26.52;17.50;;;;;;;;;;5059693;28;20229;-65
2023/05/11 01:40:13;;;;;;;28.48;18.85;;;;;;;;;;5078629;28;20220;-64
2023/05/11 01:42:40;;;;;;;28.85;20.35;;;;;;;;;;5072223;28;20666;-65
2023/05/11 01:45:06;;;;;;;32.85;20.35;;;;;;;;;;5070796;28;20693;-64
2023/05/11 01:47:32;;;;;;;27.45;18.85;;;;;;;;;;5082171;28;20209;-65
2023/05/11 01:49:57;;;;;;;27.98;19.42;;;;;;;;;;5069752;28;20217;-64
2023/05/11 01:52:23;;;;;;;28.52;19.80;;;;;;;;;;5069843;28;20210;-64
2023/05/11 01:54:48;;;;;;;33.05;20.17;;;;;;;;;;5072128;28;20226;-65
2023/05/11 01:57:14;;;;;;;30.95;19.88;;;;;;;;;;5071416;28;20238;-65
2023/05/11 01:59:39;;;;;;;28.52;18.88;;;;;;;;;;5071319;28;20207;-64
2023/05/11 02:02:05;;;;;;;28.10;18.75;;;;;;;;;;5072752;28;20267;-64
2023/05/11 02:04:30;;;;;;;29.08;19.88;;;;;;;;;;5071892;28;20198;-65
2023/05/11 02:06:55;;;;;;;29.13;19.35;;;;;;;;;;5088470;28;20266;-65
2023/05/11 02:09:21;;;;;;;28.05;17.92;;;;;;;;;;5075002;28;20249;-65
2023/05/11 02:11:46;;;;;;;28.77;19.13;;;;;;;;;;5076556;28;20214;-64
2023/05/11 02:14:11;;;;;;;28.05;19.15;;;;;;;;;;5071782;28;20206;-65
2023/05/11 02:16:37;;;;;;;33.20;19.92;;;;;;;;;;5062298;28;20498;-65
2023/05/11 02:19:02;;;;;;;34.60;21.00;;;;;;;;;;5077881;28;20207;-65
2023/05/11 02:21:27;;;;;;;25.75;19.08;;;;;;;;;;5078642;28;20227;-65
2023/05/11 02:23:52;;;;;;;28.08;19.25;;;;;;;;;;5063231;28;20246;-65
2023/05/11 02:26:18;;;;;;;30.77;19.17;;;;;;;;;;5062291;28;20214;-64
2023/05/11 02:28:43;;;;;;;30.52;19.55;;;;;;;;;;5063521;28;20218;-65
2023/05/11 02:31:09;;;;;;;29.08;19.33;;;;;;;;;;5075751;28;20302;-64
2023/05/11 02:33:35;;;;;;;29.42;19.42;;;;;;;;;;5070543;28;20219;-65
2023/05/11 02:36:01;;;;;;;28.67;18.52;;;;;;;;;;5056076;28;20248;-64
2023/05/11 02:38:32;;;;;;;25.90;19.13;;;;;;;;;;5058402;28;20676;-65
2023/05/11 02:40:59;;;;;;;27.67;18.88;;;;;;;;;;5062356;28;20234;-65
2023/05/11 02:43:26;;;;;;;32.60;19.30;;;;;;;;;;5077540;28;20272;-65
2023/05/11 02:45:52;;;;;;;23.65;18.52;;;;;;;;;;5078041;28;20377;-65
2023/05/11 02:48:20;;;;;;;25.17;18.08;;;;;;;;;;5074546;28;20224;-65
2023/05/11 02:50:45;;;;;;;25.88;17.88;;;;;;;;;;5062809;28;20206;-66
2023/05/11 02:53:13;;;;;;;23.50;17.80;;;;;;;;;;5076112;28;20678;-65
2023/05/11 02:55:39;;;;;;;24.90;18.15;;;;;;;;;;5054923;28;20667;-66
2023/05/11 02:58:04;;;;;;;23.42;17.92;;;;;;;;;;5069122;28;20785;-66
2023/05/11 03:00:30;;;;;;;22.00;17.17;;;;;;;;;;5071304;28;20231;-65
2023/05/11 03:02:55;;;;;;;24.00;17.58;;;;;;;;;;5076787;28;20275;-66
2023/05/11 03:05:20;;;;;;;24.13;18.25;;;;;;;;;;5077289;28;20222;-66
2023/05/11 03:07:45;;;;;;;23.65;17.35;;;;;;;;;;5063084;28;20775;-66
2023/05/11 03:10:10;;;;;;;24.25;17.90;;;;;;;;;;5061048;28;20644;-66
2023/05/11 03:12:36;;;;;;;21.33;16.45;;;;;;;;;;5077493;28;20261;-66
2023/05/11 03:15:01;;;;;;;22.67;16.77;;;;;;;;;;5080488;28;20206;-66
2023/05/11 03:17:27;;;;;;;18.90;15.05;;;;;;;;;;5086767;28;20624;-66
2023/05/11 03:19:53;;;;;;;17.75;14.23;;;;;;;;;;5090526;28;20213;-66
2023/05/11 03:22:18;;;;;;;19.88;14.25;;;;;;;;;;5091504;28;20518;-66
2023/05/11 03:24:44;;;;;;;19.20;13.75;;;;;;;;;;5090140;28;20556;-66
2023/05/11 03:27:09;;;;;;;20.67;14.82;;;;;;;;;;5090086;28;20206;-65
2023/05/11 03:29:37;;;;;;;20.15;14.02;;;;;;;;;;5091071;28;20205;-66
2023/05/11 03:32:02;;;;;;;20.05;15.10;;;;;;;;;;5091185;28;20567;-65
2023/05/11 03:34:27;;;;;;;23.48;15.73;;;;;;;;;;5072394;28;20611;-66
2023/05/11 03:36:53;;;;;;;22.10;16.50;;;;;;;;;;5053995;28;20206;-65
2023/05/11 03:39:18;;;;;;;21.92;16.27;;;;;;;;;;5053769;28;20259;-65
2023/05/11 03:41:43;;;;;;;23.05;17.08;;;;;;;;;;5069530;28;20237;-65
2023/05/11 03:44:09;;;;;;;22.85;16.65;;;;;;;;;;5075579;28;20203;-65
2023/05/11 03:46:35;;;;;;;24.10;17.27;;;;;;;;;;5076792;28;20218;-66
2023/05/11 03:49:00;;;;;;;21.15;15.70;;;;;;;;;;5076808;28;20619;-66
2023/05/11 03:51:25;;;;;;;22.92;16.35;;;;;;;;;;5075363;28;20241;-66
2023/05/11 03:53:50;;;;;;;21.75;16.50;;;;;;;;;;5061727;28;20222;-66
2023/05/11 03:56:16;;;;;;;21.88;15.77;;;;;;;;;;5061015;28;20770;-65
2023/05/11 03:58:41;;;;;;;19.45;15.32;;;;;;;;;;5055855;28;20563;-66
2023/05/11 04:01:07;;;;;;;26.17;16.90;;;;;;;;;;5053259;28;20277;-65
2023/05/11 04:03:33;;;;;;;23.15;16.60;;;;;;;;;;5053721;28;20237;-66
2023/05/11 04:05:58;;;;;;;19.15;15.63;;;;;;;;;;5070618;28;20255;-66
2023/05/11 04:08:24;;;;;;;20.67;16.25;;;;;;;;;;5061125;28;20210;-65
2023/05/11 04:10:49;;;;;;;21.25;15.60;;;;;;;;;;5061255;28;20218;-66
2023/05/11 04:13:14;;;;;;;24.95;16.83;;;;;;;;;;5059464;28;20696;-66
2023/05/11 04:15:39;;;;;;;22.50;15.60;;;;;;;;;;5061015;28;20940;-66
2023/05/11 04:18:05;;;;;;;24.45;15.73;;;;;;;;;;5060550;28;20218;-66
2023/05/11 04:20:30;;;;;;;21.13;16.02;;;;;;;;;;5057486;28;20572;-67
2023/05/11 04:22:56;;;;;;;22.95;15.95;;;;;;;;;;5053676;28;20295;-66
2023/05/11 04:25:21;;;;;;;22.48;15.85;;;;;;;;;;5052915;28;20218;-66
2023/05/11 04:27:46;;;;;;;23.08;16.13;;;;;;;;;;5055895;28;20209;-65
2023/05/11 04:30:12;;;;;;;28.77;18.42;;;;;;;;;;5060265;28;20309;-66
2023/05/11 04:32:37;;;;;;;28.80;18.50;;;;;;;;;;5060980;28;20214;-65
2023/05/11 04:35:02;;;;;;;23.70;16.90;;;;;;;;;;5065876;28;20218;-65
2023/05/11 04:37:28;;;;;;;28.65;17.92;;;;;;;;;;5070054;28;20237;-66
2023/05/11 04:39:53;;;;;;;24.02;16.95;;;;;;;;;;5069621;28;20213;-65
2023/05/11 04:42:18;;;;;;;23.77;16.45;;;;;;;;;;5069822;28;20219;-65
2023/05/11 04:44:43;;;;;;;27.13;16.65;;;;;;;;;;5070259;28;20368;-65
2023/05/11 04:47:09;;;;;;;23.27;16.50;;;;;;;;;;5068023;28;20229;-66
2023/05/11 04:49:34;;;;;;;25.05;17.15;;;;;;;;;;5061102;28;20681;-65
2023/05/11 04:52:00;;;;;;;25.05;16.73;;;;;;;;;;5060761;28;20618;-65
2023/05/11 04:54:25;;;;;;;22.70;16.67;;;;;;;;;;5060252;28;20279;-64
2023/05/11 04:56:51;;;;;;;21.90;16.30;;;;;;;;;;5066577;28;20225;-65
2023/05/11 04:59:16;;;;;;;23.52;16.58;;;;;;;;;;5072243;28;20217;-65
2023/05/11 05:01:41;;;;;;;28.70;18.85;;;;;;;;;;5072099;28;20226;-66
2023/05/11 05:04:07;;;;;;;28.30;19.00;;;;;;;;;;5075429;28;20213;-65
2023/05/11 05:06:32;;;;;;;29.27;19.88;;;;;;;;;;5075493;28;20698;-65
2023/05/11 05:08:57;;;;;;;32.40;20.55;;;;;;;;;;5071918;28;20214;-66
2023/05/11 05:11:23;;;;;;;32.38;20.80;;;;;;;;;;5059877;28;20222;-65
2023/05/11 05:13:48;;;;;;;32.13;22.88;;;;;;;;;;5059920;28;21019;-65
2023/05/11 05:16:13;;;;;;;31.80;20.98;;;;;;;;;;5059594;28;20256;-64
2023/05/11 05:18:39;;;;;;;28.65;19.83;;;;;;;;;;5060257;28;20209;-65
2023/05/11 05:21:04;;;;;;;26.98;18.52;;;;;;;;;;5072209;28;20387;-66
2023/05/11 05:23:30;;;;;;;25.67;17.92;;;;;;;;;;5063378;28;20259;-67
2023/05/11 05:25:55;;;;;;;27.45;19.35;;;;;;;;;;5072950;28;20504;-67
2023/05/11 05:28:21;;;;;;;21.42;15.63;;;;;;;;;;5083763;28;20755;-67
2023/05/11 05:30:46;;;;;;;23.50;16.10;;;;;;;;;;5083399;28;20205;-67
2023/05/11 05:33:11;;;;;;;17.80;13.88;;;;;;;;;;5083980;28;20221;-67
2023/05/11 05:35:36;;;;;;;24.83;15.43;;;;;;;;;;5081288;28;20703;-68
2023/05/11 05:38:02;;;;;;;22.75;16.08;;;;;;;;;;5062938;28;20217;-66
2023/05/11 05:40:27;;;;;;;23.42;15.45;;;;;;;;;;5064354;28;20228;-67
2023/05/11 05:42:53;;;;;;;21.50;15.38;;;;;;;;;;5079119;28;20213;-66
2023/05/11 05:45:18;;;;;;;21.05;14.18;;;;;;;;;;5075381;28;20209;-63
2023/05/11 05:47:43;;;;;;;22.93;17.70;;;;;;;;;;5060945;28;20427;-64
2023/05/11 05:50:09;;;;;;;22.38;16.80;;;;;;;;;;5060247;28;20222;-64
2023/05/11 05:52:34;;;;;;;20.20;14.63;;;;;;;;;;5064766;28;20225;-64
2023/05/11 05:54:59;;;;;;;22.58;14.85;;;;;;;;;;5063982;28;20300;-64
2023/05/11 05:57:25;;;;;;;20.95;14.90;;;;;;;;;;5062540;28;20222;-64
2023/05/11 05:59:50;;;;;;;20.40;14.32;;;;;;;;;;5064044;28;20220;-65
2023/05/11 06:02:15;;;;;;;20.17;13.93;;;;;;;;;;5062957;28;20591;-65
2023/05/11 06:04:41;;;;;;;20.50;13.82;;;;;;;;;;5060864;28;20207;-64
2023/05/11 06:07:06;;;;;;;17.73;14.23;;;;;;;;;;5056161;28;20218;-64
2023/05/11 06:09:31;;;;;;;20.52;14.45;;;;;;;;;;5056662;28;20214;-64
2023/05/11 06:11:57;;;;;;;18.10;13.50;;;;;;;;;;5053153;28;20301;-64
2023/05/11 06:14:22;;;;;;;18.88;13.57;;;;;;;;;;5062125;28;20692;-64
2023/05/11 06:16:47;;;;;;;16.92;12.63;;;;;;;;;;5063896;28;20221;-64
2023/05/11 06:19:14;;;;;;;22.70;16.10;;;;;;;;;;5062584;28;20214;-64
2023/05/11 06:21:41;;;;;;;19.77;14.25;;;;;;;;;;5078334;28;20299;-64
2023/05/11 06:24:07;;;;;;;17.88;12.40;;;;;;;;;;5082212;28;20218;-63
2023/05/11 06:26:32;;;;;;;19.48;12.82;;;;;;;;;;5080320;28;20427;-64
2023/05/11 06:28:57;;;;;;;18.93;12.67;;;;;;;;;;5075416;28;20447;-65
2023/05/11 06:31:23;;;;;;;14.55;10.02;;;;;;;;;;5061733;28;20214;-65
2023/05/11 06:33:48;;;;;;;12.18;9.05;;;;;;;;;;5056057;28;20725;-67
2023/05/11 06:36:13;;;;;;;12.43;8.52;;;;;;;;;;5062906;28;20267;-66
2023/05/11 06:38:39;;;;;;;9.18;7.05;;;;;;;;;;5063607;28;20279;-66
2023/05/11 06:41:05;;;;;;;11.95;7.20;;;;;;;;;;5061916;28;20619;-64
2023/05/11 06:43:30;;;;;;;11.68;8.43;;;;;;;;;;5063211;28;20462;-65
2023/05/11 06:45:55;;;;;;;11.73;8.05;;;;;;;;;;5062549;28;20701;-65
2023/05/11 06:48:22;;;;;;;10.85;7.95;;;;;;;;;;5061656;28;20293;-65
2023/05/11 06:50:47;;;;;;;12.55;8.52;;;;;;;;;;5077598;28;20682;-67
2023/05/11 06:53:13;;;;;;;10.75;8.50;;;;;;;;;;5056889;28;20677;-65
2023/05/11 06:55:38;;;;;;;11.77;7.75;;;;;;;;;;5054750;28;20383;-65
2023/05/11 06:58:04;;;;;;;9.80;7.25;;;;;;;;;;5059691;28;20245;-65
2023/05/11 07:00:29;;;;;;;10.27;7.13;;;;;;;;;;5063458;28;20223;-65
2023/05/11 07:02:54;;;;;;;10.90;7.30;;;;;;;;;;5078238;28;20478;-65
2023/05/11 07:05:20;;;;;;;9.20;6.55;;;;;;;;;;5082657;28;20309;-65
2023/05/11 07:07:45;;;;;;;9.23;6.88;;;;;;;;;;5082020;28;20609;-65
2023/05/11 07:10:10;;;;;;;11.55;7.45;;;;;;;;;;5082673;28;20621;-65
2023/05/11 07:12:36;;;;;;;10.65;7.10;;;;;;;;;;5089016;28;20221;-65
2023/05/11 07:15:01;;;;;;;11.40;7.88;;;;;;;;;;5089092;28;20223;-63
2023/05/11 07:17:27;;;;;;;11.85;7.97;;;;;;;;;;5086118;28;20206;-65
2023/05/11 07:19:53;;;;;;;11.77;7.65;;;;;;;;;;5092040;28;20209;-65
2023/05/11 07:22:18;;;;;;;10.07;7.22;;;;;;;;;;5090745;28;20245;-64
2023/05/11 07:24:44;;;;;;;12.18;7.78;;;;;;;;;;5091818;28;20708;-65
2023/05/11 07:27:10;;;;;;;11.15;7.68;;;;;;;;;;5082805;28;20249;-64
2023/05/11 07:29:35;;;;;;;16.27;8.93;;;;;;;;;;5090849;28;20214;-65
2023/05/11 07:32:00;;;;;;;11.70;8.05;;;;;;;;;;5091328;28;20571;-62
2023/05/11 07:34:25;;;;;;;12.80;8.13;;;;;;;;;;5091644;28;20224;-65
2023/05/11 07:36:51;;;;;;;10.48;7.70;;;;;;;;;;5087504;28;20217;-64
2023/05/11 07:39:16;;;;;;;10.55;8.38;;;;;;;;;;5090971;28;20221;-65
2023/05/11 07:41:42;;;;;;;12.50;8.18;;;;;;;;;;5082248;28;20275;-65
2023/05/11 07:44:07;;;;;;;12.65;8.43;;;;;;;;;;5090198;28;20615;-64
2023/05/11 07:46:32;;;;;;;12.43;9.00;;;;;;;;;;5082746;28;20225;-65
2023/05/11 07:48:57;;;;;;;13.20;9.05;;;;;;;;;;5081204;28;20223;-65
2023/05/11 07:51:23;;;;;;;11.65;8.85;;;;;;;;;;5081556;28;20639;-64
2023/05/11 07:53:48;;;;;;;13.73;9.82;;;;;;;;;;5088377;28;20271;-64
2023/05/11 07:56:13;;;;;;;15.52;9.40;;;;;;;;;;5090909;28;20213;-65
2023/05/11 07:58:38;;;;;;;12.93;9.10;;;;;;;;;;5085061;28;20239;-65
2023/05/11 08:01:04;;;;;;;13.82;9.95;;;;;;;;;;5076884;28;20230;-65
2023/05/11 08:03:29;;;;;;;12.55;8.82;;;;;;;;;;5089934;28;20610;-65
2023/05/11 08:05:54;;;;;;;13.70;10.60;;;;;;;;;;5084467;28;20448;-65
2023/05/11 08:08:20;;;;;;;14.40;10.55;;;;;;;;;;5078485;28;20225;-65
2023/05/11 08:10:45;;;;;;;14.07;10.70;;;;;;;;;;5081604;28;20285;-64
2023/05/11 08:13:10;;;;;;;14.35;10.73;;;;;;;;;;5077490;28;20226;-64
2023/05/11 08:15:35;;;;;;;13.48;10.15;;;;;;;;;;5070377;28;20302;-65
2023/05/11 08:18:01;;;;;;;14.73;10.57;;;;;;;;;;5079290;28;20539;-63
2023/05/11 08:20:27;;;;;;;14.65;10.50;;;;;;;;;;5074541;28;20214;-64
2023/05/11 08:22:52;;;;;;;13.35;10.48;;;;;;;;;;5070042;28;20218;-64
2023/05/11 08:25:17;;;;;;;14.30;9.38;;;;;;;;;;5069311;28;20294;-64
2023/05/11 08:27:42;;;;;;;12.63;8.55;;;;;;;;;;5070375;28;20218;-64
2023/05/11 08:30:08;;;;;;;11.60;8.38;;;;;;;;;;5069768;28;20328;-64
2023/05/11 08:32:34;;;;;;;12.52;8.32;;;;;;;;;;5069848;28;20206;-65
2023/05/11 08:34:59;;;;;;;11.73;8.20;;;;;;;;;;5070357;28;20211;-65
2023/05/11 08:37:25;;;;;;;13.57;9.43;;;;;;;;;;5069882;28;20206;-64
2023/05/11 08:39:50;;;;;;;12.70;9.45;;;;;;;;;;5069456;28;20583;-65
2023/05/11 08:42:16;;;;;;;13.45;8.57;;;;;;;;;;5069612;28;20306;-64
2023/05/11 08:44:41;;;;;;;12.85;9.05;;;;;;;;;;5068729;28;20287;-65
2023/05/11 08:47:07;;;;;;;12.43;9.00;;;;;;;;;;5069349;28;20212;-64
2023/05/11 08:49:32;;;;;;;11.20;7.78;;;;;;;;;;5068870;28;20271;-64
2023/05/11 08:51:58;;;;;;;11.18;8.18;;;;;;;;;;5068845;28;20297;-64
2023/05/11 08:54:23;;;;;;;10.77;7.88;;;;;;;;;;5067542;28;20293;-65
2023/05/11 08:56:50;;;;;;;11.38;7.95;;;;;;;;;;5070114;28;20207;-64
2023/05/11 08:59:15;;;;;;;9.52;6.78;;;;;;;;;;5068134;28;20214;-64
2023/05/11 09:01:40;;;;;;;10.35;7.70;;;;;;;;;;5068905;28;20267;-65
2023/05/11 09:04:06;;;;;;;9.77;7.05;;;;;;;;;;5069650;28;20685;-65
2023/05/11 09:06:32;;;;;;;10.13;7.20;;;;;;;;;;5068636;28;20309;-66
2023/05/11 09:08:57;;;;;;;8.82;6.57;;;;;;;;;;5069551;28;20766;-65
2023/05/11 09:11:23;;;;;;;9.07;6.40;;;;;;;;;;5082651;28;20214;-65
2023/05/11 09:13:49;;;;;;;9.85;6.97;;;;;;;;;;5084095;28;20587;-65
2023/05/11 09:16:14;;;;;;;9.70;6.85;;;;;;;;;;5084107;28;20206;-66
2023/05/11 09:18:47;;;;;;;9.57;7.15;;;;;;;;;;5075510;28;20730;-65
2023/05/11 09:21:12;;;;;;;9.50;6.80;;;;;;;;;;5073965;28;20587;-64
2023/05/11 09:23:38;;;;;;;12.38;8.60;;;;;;;;;;5078147;28;20198;-65
2023/05/11 09:26:03;;;;;;;10.18;7.90;;;;;;;;;;5069413;28;20313;-65
2023/05/11 09:28:28;;;;;;;11.65;7.32;;;;;;;;;;5073496;28;20258;-65
2023/05/11 09:30:53;;;;;;;10.55;7.32;;;;;;;;;;5074321;28;20210;-65
2023/05/11 09:33:21;;;;;;;9.95;6.43;;;;;;;;;;5069271;28;20620;-66
2023/05/11 09:35:47;;;;;;;7.68;5.70;;;;;;;;;;5069096;28;20218;-66
2023/05/11 09:38:13;;;;;;;9.00;5.85;;;;;;;;;;5067958;28;20233;-65
2023/05/11 09:40:38;;;;;;;7.35;5.57;;;;;;;;;;5073429;28;20229;-65
2023/05/11 09:43:15;;;;;;;7.30;5.90;;;;;;;;;;5085215;28;20214;-65
2023/05/11 09:45:41;;;;;;;8.15;5.53;;;;;;;;;;5089666;28;20206;-66
2023/05/11 09:48:13;;;;;;;8.07;5.93;;;;;;;;;;5086316;28;20207;-65
2023/05/11 09:50:38;;;;;;;7.35;5.53;;;;;;;;;;5072982;28;20202;-65
2023/05/11 09:53:04;;;;;;;7.00;5.40;;;;;;;;;;5069276;28;20222;-65
2023/05/11 09:55:29;;;;;;;7.88;6.30;;;;;;;;;;5069683;28;20336;-66
2023/05/11 09:57:55;;;;;;;7.75;5.68;;;;;;;;;;5069074;28;20233;-65
2023/05/11 10:00:21;;;;;;;7.25;5.50;;;;;;;;;;5068910;28;20336;-65
2023/05/11 10:02:57;;;;;;;7.15;5.55;;;;;;;;;;5069514;28;20233;-65
2023/05/11 10:05:22;;;;;;;7.72;5.85;;;;;;;;;;5068474;28;20210;-65
2023/05/11 10:07:48;;;;;;;8.52;5.88;;;;;;;;;;5069507;28;20222;-65
2023/05/11 10:10:14;;;;;;;7.57;5.90;;;;;;;;;;5078306;28;20734;-67
2023/05/11 10:12:39;;;;;;;8.10;6.22;;;;;;;;;;5082926;28;20226;-65
2023/05/11 10:15:05;;;;;;;8.00;6.25;;;;;;;;;;5072451;28;20206;-65
2023/05/11 10:17:31;;;;;;;8.40;6.63;;;;;;;;;;5075711;28;20579;-66
2023/05/11 10:19:56;;;;;;;9.00;6.22;;;;;;;;;;5084535;28;20201;-65
2023/05/11 10:22:22;;;;;;;8.25;6.43;;;;;;;;;;5092472;28;20521;-64
2023/05/11 10:24:47;;;;;;;8.43;6.65;;;;;;;;;;5078156;28;20421;-65
2023/05/11 10:27:12;;;;;;;13.85;9.70;;;;;;;;;;5072277;28;20709;-66
2023/05/11 10:29:37;;;;;;;12.02;8.57;;;;;;;;;;5071068;28;20210;-65
2023/05/11 10:32:03;;;;;;;12.90;10.65;;;;;;;;;;5070505;28;20623;-65
2023/05/11 10:34:28;;;;;;;14.70;10.73;;;;;;;;;;5072693;28;20207;-65
2023/05/11 10:36:55;;;;;;;13.43;10.18;;;;;;;;;;5072455;28;20271;-65
2023/05/11 10:39:20;;;;;;;12.45;9.57;;;;;;;;;;5071385;28;20296;-64
2023/05/11 10:41:48;;;;;;;10.88;9.50;;;;;;;;;;5072264;28;20305;-65
2023/05/11 10:44:25;;;;;;;9.10;7.53;;;;;;;;;;5071705;28;20206;-65
2023/05/11 10:46:55;;;;;;;8.35;6.45;;;;;;;;;;5070454;28;20673;-66
2023/05/11 10:49:47;;;;;;;7.63;6.55;;;;;;;;;;5070570;28;20674;-65
2023/05/11 10:52:19;;;;;;;8.02;6.45;;;;;;;;;;5071564;28;20733;-65
2023/05/11 10:54:45;;;;;;;7.88;5.55;;;;;;;;;;5070307;28;20203;-65
2023/05/11 10:57:12;;;;;;;7.97;5.80;;;;;;;;;;5071676;28;20281;-64
2023/05/11 10:59:43;;;;;;;9.30;6.65;;;;;;;;;;5071015;28;20751;-65
2023/05/11 11:02:08;;;;;;;6.93;5.45;;;;;;;;;;5071550;28;20328;-64
2023/05/11 11:04:40;;;;;;;8.55;4.60;;;;;;;;;;5072167;28;20662;-64
2023/05/11 11:07:06;;;;;;;5.95;4.45;;;;;;;;;;5088016;28;20210;-64
2023/05/11 11:09:51;;;;;;;6.32;4.50;;;;;;;;;;5087150;28;20636;-65
2023/05/11 11:12:17;;;;;;;8.75;5.57;;;;;;;;;;5069241;28;20215;-65
2023/05/11 11:14:53;;;;;;;9.70;5.40;;;;;;;;;;5070685;28;20639;-65
2023/05/11 11:17:19;;;;;;;7.30;5.90;;;;;;;;;;5083430;28;20288;-64
2023/05/11 11:19:44;;;;;;;7.85;5.07;;;;;;;;;;5092200;28;20554;-65
2023/05/11 11:22:28;;;;;;;8.15;6.03;;;;;;;;;;5090834;28;20707;-64
2023/05/11 11:24:54;;;;;;;6.60;5.15;;;;;;;;;;5091986;28;20275;-65
2023/05/11 11:27:20;;;;;;;6.68;4.70;;;;;;;;;;5091389;28;20693;-65
2023/05/11 11:30:05;;;;;;;6.70;5.07;;;;;;;;;;5089300;28;20669;-64
2023/05/11 11:32:30;;;;;;;7.55;5.00;;;;;;;;;;5091392;28;20216;-64
2023/05/11 11:34:56;;;;;;;6.97;5.15;;;;;;;;;;5090885;28;20225;-64
2023/05/11 11:37:22;;;;;;;5.57;4.40;;;;;;;;;;5089399;28;20214;-64
2023/05/11 11:39:48;;;;;;;5.60;3.65;;;;;;;;;;5079292;28;20203;-65
2023/05/11 11:42:14;;;;;;;5.28;3.45;;;;;;;;;;5069971;28;20280;-63
2023/05/11 11:44:39;;;;;;;5.38;3.30;;;;;;;;;;5070860;28;20206;-64
2023/05/11 11:47:18;;;;;;;5.18;3.00;;;;;;;;;;5070955;28;20215;-65
2023/05/11 11:49:45;;;;;;;4.10;2.88;;;;;;;;;;5070653;28;20210;-66
2023/05/11 11:52:11;;;;;;;4.80;3.20;;;;;;;;;;5070662;28;20230;-65
2023/05/11 11:54:38;;;;;;;7.53;3.20;;;;;;;;;;5070935;28;20245;-65
2023/05/11 11:57:03;;;;;;;5.55;2.97;;;;;;;;;;5070065;28;20210;-65
2023/05/11 11:59:29;;;;;;;3.67;2.70;;;;;;;;;;5070700;28;20539;-66
2023/05/11 12:01:55;;;;;;;3.60;2.60;;;;;;;;;;5070895;28;20679;-65
2023/05/11 12:04:31;;;;;;;3.25;2.40;;;;;;;;;;5068326;28;20280;-65
2023/05/11 12:06:56;;;;;;;5.85;2.70;;;;;;;;;;5085549;28;20202;-65
2023/05/11 12:09:22;;;;;;;4.30;3.03;;;;;;;;;;5086851;28;20217;-65
2023/05/11 12:11:47;;;;;;;5.45;3.65;;;;;;;;;;5070098;28;20288;-65
2023/05/11 12:14:13;;;;;;;4.28;3.17;;;;;;;;;;5075480;28;20222;-67
2023/05/11 12:16:38;;;;;;;4.43;2.90;;;;;;;;;;5078254;28;20210;-65
2023/05/11 12:19:03;;;;;;;4.43;3.40;;;;;;;;;;5088302;28;20221;-64
2023/05/11 12:21:30;;;;;;;4.93;3.47;;;;;;;;;;5069566;28;20214;-65
2023/05/11 12:23:56;;;;;;;5.35;3.95;;;;;;;;;;5069841;28;20606;-66
2023/05/11 12:26:22;;;;;;;8.07;5.38;;;;;;;;;;5070140;28;20561;-64
2023/05/11 12:28:49;;;;;;;7.88;6.50;;;;;;;;;;5070059;28;20653;-65
2023/05/11 12:31:16;;;;;;;10.77;8.40;;;;;;;;;;5069034;28;20202;-66
2023/05/11 12:33:47;;;;;;;11.48;9.18;;;;;;;;;;5070478;28;20207;-65
2023/05/11 12:36:13;;;;;;;12.00;10.27;;;;;;;;;;5069506;28;20210;-64
2023/05/11 12:38:42;;;;;;;14.27;10.15;;;;;;;;;;5069738;28;20673;-65
2023/05/11 12:41:07;;;;;;;10.98;8.80;;;;;;;;;;5068397;28;20348;-64
2023/05/11 12:43:32;;;;;;;11.10;8.85;;;;;;;;;;5069986;28;20282;-64
2023/05/11 12:45:58;;;;;;;9.68;7.88;;;;;;;;;;5069465;28;20657;-64
2023/05/11 12:48:23;;;;;;;10.52;8.07;;;;;;;;;;5069875;28;20221;-64
2023/05/11 12:50:48;;;;;;;9.02;7.35;;;;;;;;;;5070328;28;20202;-65
2023/05/11 12:53:14;;;;;;;11.20;6.95;;;;;;;;;;5068917;28;20293;-65
2023/05/11 12:55:40;;;;;;;9.68;7.00;;;;;;;;;;5068872;28;20252;-64
2023/05/11 12:58:10;;;;;;;10.32;7.20;;;;;;;;;;5069477;28;20214;-64
2023/05/11 13:00:36;;;;;;;9.35;7.43;;;;;;;;;;5069264;28;20211;-65
2023/05/11 13:03:01;;;;;;;8.80;6.57;;;;;;;;;;5068492;28;20222;-64
2023/05/11 13:05:26;;;;;;;10.98;7.22;;;;;;;;;;5069893;28;20213;-65
2023/05/11 13:07:57;;;;;;;8.50;7.10;;;;;;;;;;5069476;28;20252;-65
2023/05/11 13:10:22;;;;;;;10.88;8.82;;;;;;;;;;5069468;28;20297;-65
2023/05/11 13:12:49;;;;;;;8.70;5.93;;;;;;;;;;5076474;28;20300;-65
2023/05/11 13:15:14;;;;;;;7.10;4.10;;;;;;;;;;5068652;28;20245;-65
2023/05/11 13:17:41;;;;;;;6.60;4.60;;;;;;;;;;5086390;28;20197;-65
2023/05/11 13:20:15;;;;;;;6.45;4.65;;;;;;;;;;5089807;28;20213;-64
2023/05/11 13:22:41;;;;;;;6.10;4.07;;;;;;;;;;5090348;28;20217;-65
2023/05/11 13:25:07;;;;;;;5.78;4.03;;;;;;;;;;5088169;28;20557;-64
2023/05/11 13:27:33;;;;;;;7.95;4.25;;;;;;;;;;5088946;28;20631;-65
2023/05/11 13:29:58;;;;;;;6.72;4.15;;;;;;;;;;5089918;28;20205;-65
2023/05/11 13:32:24;;;;;;;7.03;4.40;;;;;;;;;;5089560;28;20206;-65
2023/05/11 13:34:50;;;;;;;8.07;3.78;;;;;;;;;;5089291;28;20210;-65
2023/05/11 13:37:15;;;;;;;4.50;3.00;;;;;;;;;;5089586;28;20267;-65
2023/05/11 13:39:40;;;;;;;4.88;3.22;;;;;;;;;;5089958;28;20595;-64
2023/05/11 13:42:05;;;;;;;5.60;3.70;;;;;;;;;;5088342;28;20225;-64
2023/05/11 13:44:31;;;;;;;8.32;4.97;;;;;;;;;;5089752;28;20609;-65
2023/05/11 13:46:56;;;;;;;8.73;4.32;;;;;;;;;;5090655;28;20205;-64
2023/05/11 13:49:22;;;;;;;12.38;8.50;;;;;;;;;;5092660;28;20202;-65
2023/05/11 13:51:47;;;;;;;9.00;5.80;;;;;;;;;;5090162;28;20210;-65
2023/05/11 13:54:12;;;;;;;5.57;3.95;;;;;;;;;;5072958;28;20226;-64
2023/05/11 13:56:37;;;;;;;5.38;3.92;;;;;;;;;;5079701;28;20240;-65
2023/05/11 13:59:03;;;;;;;6.53;3.35;;;;;;;;;;5075630;28;20205;-65
2023/05/11 14:01:28;;;;;;;6.95;4.15;;;;;;;;;;5062503;28;20455;-65
2023/05/11 14:03:53;;;;;;;6.40;4.68;;;;;;;;;;5080314;28;20210;-65
2023/05/11 14:06:20;;;;;;;6.10;4.82;;;;;;;;;;5081377;28;20673;-64
2023/05/11 14:08:45;;;;;;;7.60;4.50;;;;;;;;;;5087414;28;20264;-65
2023/05/11 14:11:10;;;;;;;6.65;4.18;;;;;;;;;;5067604;28;20997;-65
2023/05/11 14:13:36;;;;;;;4.55;3.20;;;;;;;;;;5067422;28;20245;-65
2023/05/11 14:16:01;;;;;;;4.03;2.78;;;;;;;;;;5080293;28;20282;-63
2023/05/11 14:18:26;;;;;;;4.00;2.30;;;;;;;;;;5066510;28;20241;-65
2023/05/11 14:20:52;;;;;;;4.40;2.80;;;;;;;;;;5063118;28;20508;-65
2023/05/11 14:23:17;;;;;;;4.68;2.83;;;;;;;;;;5058602;28;20718;-66